Terminal Aerodrome Forecast
Issued by NWS Greer, SC

Home | Current Version | Previous Version | Text Only | Print | Product List | Glossary On
Versions: 1 2 3 4 5 6 7 8 9 10 11 12 13 14 15 16 17 18 19 20 21 22 23 24 25 26 27 28 29
106
FTUS42 KGSP 122333
TAFAVL
TAF
KAVL 122333Z 1300/1324 35009KT P6SM BKN035
     FM130100 35011G17KT P6SM BKN035
     FM130400 35016G26KT P6SM BKN040
      TEMPO 1305/1309 35017G27KT P6SM BKN030
     FM130900 35017G27KT P6SM SCT030
     FM131700 35015G23KT P6SM SCT190=

USA.gov is the U.S. government's official web portal to all federal, state and local government web resources and services.